HESH/SSH METAR and TAF weather

Enter ICAO airport designator
Station Type Date Time Source
HESH METAR 2022/06/30 01:00 UTC NOAA

HESH 300100Z 04006KT CAVOK 28/20 Q1004 NOSIG


Station Type Date Time Source
HESH Decoded METAR 2022/06/30 01:00 UTC NOAA

Sharm El Sheikhintl, Egypt (HESH) 27-58N 034-23E
Jun 29, 2022 - 09:00 PM EDT / 2022.06.30 0100 UTC
Wind: from the NE (040 degrees) at 7 MPH (6 KT):0
Visibility: greater than 7 mile(s):0
Temperature: 82 F (28 C)
Dew Point: 68 F (20 C)
Relative Humidity: 61%
Pressure (altimeter): 29.65 in. Hg (1004 hPa)
ob: HESH 300100Z 04006KT CAVOK 28/20 Q1004 NOSIG
cycle: 1

Station Type Date Time Source
HESH TAF 2022/06/29 18:33 UTC NOAA

TAF HESH 291700Z 2918/3024 32010KT CAVOK

Example: see airport list